Have a Safe July 4th! 

Flight Track Log - Related Links

Times and Time Zones

All times are in EDT time to prevent confusion due to time zone crossing. See the N249PL flight status page for this flight to view local times or setup timezone preferences in your user account.

Time Position Orientation Groundspeed Altitude Reporting Facility
EDT Latitude Longitude Course Direction KTS MPH feet Rate Location/Type
Tue 02:52:23 PM 29.3847 -98.4036 150° Southeast 173 199 7,500  Level Houston Center
Tue 02:53:29 PM 29.3367 -98.3719 150° Southeast 177 204 10,000 2,079 Climbing Houston Center
Tue 02:54:30 PM 29.2892 -98.3458 154° Southeast 186 214 11,900 1,230 Climbing Houston Center
Tue 02:55:31 PM 29.2358 -98.3139 152° Southeast 226 260 12,500 571 Climbing Houston Center
Tue 02:56:36 PM 29.1681 -98.2731 152° Southeast 261 300 13,100 1,134 Climbing Houston Center
Tue 02:57:38 PM 29.1069 -98.2322 150° Southeast 235 270 14,900 1,548 Climbing Houston Center
Tue 02:58:40 PM 29.0528 -98.2006 153° Southeast 221 254 16,300 1,258 Climbing Houston Center
Tue 02:59:42 PM 28.9925 -98.1683 155° Southeast 223 257 17,500 581 Climbing Houston Center
Tue 03:00:44 PM 28.9283 -98.1328 154° Southeast 255 293 17,500  Level Houston Center
Tue 03:01:46 PM 28.8558 -98.0944 155° Southeast 275 316 17,500  Level Houston Center
Tue 03:02:49 PM 28.7939 -98.0564 152° Southeast 290 334 17,500 -48 Level Houston Center
Tue 03:03:51 PM 28.7081 -98.0114 155° Southeast 286 329 17,400 -48 Descending Houston Center
Tue 03:04:53 PM 28.6375 -97.9731 155° Southeast 283 326 17,400  Level Houston Center
Tue 03:05:55 PM 28.5675 -97.9342 154° Southeast 281 323 17,400 -48 Level Houston Center
Tue 03:06:57 PM 28.4953 -97.8944 154° Southeast 286 329 17,300 -838 Descending Houston Center
Tue 03:08:11 PM 28.3914 -97.8481 159° South 315 362 15,500 -1,452 Descending Houston Center
Tue 03:09:01 PM 28.3208 -97.8175 159° South 307 353 14,300 -1,875 Descending Houston Center
Tue 03:10:03 PM 28.2422 -97.7850 160° South 305 351 12,000 -2,081 Descending Houston Center
Tue 03:11:05 PM 28.1639 -97.7556 162° South 304 350 10,000 -1,742 Descending Houston Center
Tue 03:12:07 PM 28.0894 -97.7269 161° South 291 335 8,400 -1,839 Descending Houston Center
Tue 03:13:09 PM 28.0139 -97.7078 167° South 283 326 6,200 -2,064 Descending Houston Center
Tue 03:14:12 PM 27.9375 -97.6789 162° South 256 295 4,100 -1,584 Descending Houston Center
Tue 03:15:14 PM 27.8867 -97.6325 141° Southeast 259 298 2,900 -1,136 Descending Houston Center
Tue 03:16:24 PM 27.8297 -97.5731 137° Southeast 184 212 1,600 -969 Descending Houston Center
Tue 03:17:24 PM 27.8011 -97.5414 136° Southeast 126 145 800 -800 Descending Houston Center
Tue 03:19:00 PM 27.7667 -97.5000 156° South  Level FlightAware Approximate
Tue 03:26:00 PM 27.7704 -97.5012 156° South  Level Estimated

Login

Don't have an account? Register now (free) for customized features, flight alerts, and more!